sensor_id;sensor_type;location;lat;lon;timestamp;pressure;altitude;pressure_sealevel;temperature;humidity
75740;BME280;64357;51.344;6.550;2022-12-31T00:02:04;100151.06;;;13.01;90.09
75740;BME280;64357;51.344;6.550;2022-12-31T00:04:29;100161.03;;;12.87;90.47
75740;BME280;64357;51.344;6.550;2022-12-31T00:06:55;100134.13;;;12.81;90.78
75740;BME280;64357;51.344;6.550;2022-12-31T00:09:20;100145.47;;;12.73;91.63
75740;BME280;64357;51.344;6.550;2022-12-31T00:11:50;100135.72;;;12.69;91.73
75740;BME280;64357;51.344;6.550;2022-12-31T00:14:15;100126.88;;;12.66;92.09
75740;BME280;64357;51.344;6.550;2022-12-31T00:16:41;100131.50;;;12.70;92.00
75740;BME280;64357;51.344;6.550;2022-12-31T00:19:08;100139.84;;;12.67;92.13
75740;BME280;64357;51.344;6.550;2022-12-31T00:21:34;100140.38;;;12.63;92.55
75740;BME280;64357;51.344;6.550;2022-12-31T00:24:01;100126.88;;;12.66;92.59
75740;BME280;64357;51.344;6.550;2022-12-31T00:26:31;100130.22;;;12.65;92.72
75740;BME280;64357;51.344;6.550;2022-12-31T00:29:00;100122.84;;;12.58;92.98
75740;BME280;64357;51.344;6.550;2022-12-31T00:31:31;100127.94;;;12.68;93.16
75740;BME280;64357;51.344;6.550;2022-12-31T00:33:57;100126.28;;;12.58;93.32
75740;BME280;64357;51.344;6.550;2022-12-31T00:38:51;100122.75;;;12.46;94.62
75740;BME280;64357;51.344;6.550;2022-12-31T00:41:19;100120.00;;;12.54;94.47
75740;BME280;64357;51.344;6.550;2022-12-31T00:43:45;100113.59;;;12.60;94.87
75740;BME280;64357;51.344;6.550;2022-12-31T00:46:11;100097.47;;;12.61;94.42
75740;BME280;64357;51.344;6.550;2022-12-31T00:48:40;100089.91;;;12.62;94.16
75740;BME280;64357;51.344;6.550;2022-12-31T00:51:12;100083.09;;;12.63;94.16
75740;BME280;64357;51.344;6.550;2022-12-31T00:53:38;100087.16;;;12.71;93.76
75740;BME280;64357;51.344;6.550;2022-12-31T00:56:10;100087.41;;;12.74;93.36
75740;BME280;64357;51.344;6.550;2022-12-31T00:58:36;100088.38;;;12.86;92.51
75740;BME280;64357;51.344;6.550;2022-12-31T01:01:16;100080.91;;;12.89;91.87
75740;BME280;64357;51.344;6.550;2022-12-31T01:03:42;100075.72;;;12.99;91.54
75740;BME280;64357;51.344;6.550;2022-12-31T01:06:07;100081.22;;;13.04;91.17
75740;BME280;64357;51.344;6.550;2022-12-31T01:08:36;100076.38;;;12.97;91.10
75740;BME280;64357;51.344;6.550;2022-12-31T01:11:04;100079.78;;;13.07;90.97
75740;BME280;64357;51.344;6.550;2022-12-31T01:16:14;100083.03;;;13.17;89.81
75740;BME280;64357;51.344;6.550;2022-12-31T01:18:43;100076.34;;;13.19;90.02
75740;BME280;64357;51.344;6.550;2022-12-31T01:21:12;100078.22;;;13.31;89.83
75740;BME280;64357;51.344;6.550;2022-12-31T01:23:38;100068.13;;;13.45;89.63
75740;BME280;64357;51.344;6.550;2022-12-31T01:26:08;100076.03;;;13.48;89.41
75740;BME280;64357;51.344;6.550;2022-12-31T01:28:37;100067.16;;;13.66;88.50
75740;BME280;64357;51.344;6.550;2022-12-31T01:31:06;100055.00;;;13.75;88.23
75740;BME280;64357;51.344;6.550;2022-12-31T01:33:34;100053.22;;;13.86;87.19
75740;BME280;64357;51.344;6.550;2022-12-31T01:36:07;100051.78;;;13.90;87.31
75740;BME280;64357;51.344;6.550;2022-12-31T01:38:35;100058.38;;;13.86;87.81
75740;BME280;64357;51.344;6.550;2022-12-31T01:41:01;100067.41;;;13.81;88.28
75740;BME280;64357;51.344;6.550;2022-12-31T01:43:48;100058.13;;;13.95;87.86
75740;BME280;64357;51.344;6.550;2022-12-31T01:49:09;100070.09;;;14.06;86.70
75740;BME280;64357;51.344;6.550;2022-12-31T01:51:38;100060.59;;;14.05;86.75
75740;BME280;64357;51.344;6.550;2022-12-31T01:54:08;100067.41;;;14.16;86.51
75740;BME280;64357;51.344;6.550;2022-12-31T01:56:37;100069.09;;;14.16;86.54
75740;BME280;64357;51.344;6.550;2022-12-31T01:59:05;100072.88;;;14.21;86.71
75740;BME280;64357;51.344;6.550;2022-12-31T02:01:35;100065.53;;;14.25;86.28
75740;BME280;64357;51.344;6.550;2022-12-31T02:04:05;100067.66;;;14.19;86.49
75740;BME280;64357;51.344;6.550;2022-12-31T02:06:41;100063.06;;;14.27;85.79
75740;BME280;64357;51.344;6.550;2022-12-31T02:09:07;100066.06;;;14.33;85.31
75740;BME280;64357;51.344;6.550;2022-12-31T02:11:36;100067.63;;;14.31;85.56
75740;BME280;64357;51.344;6.550;2022-12-31T02:24:35;100068.19;;;14.50;83.65
75740;BME280;64357;51.344;6.550;2022-12-31T02:32:15;100057.13;;;14.51;83.13
75740;BME280;64357;51.344;6.550;2022-12-31T02:34:49;100054.66;;;14.53;82.79
75740;BME280;64357;51.344;6.550;2022-12-31T02:37:18;100065.97;;;14.55;82.35
75740;BME280;64357;51.344;6.550;2022-12-31T02:39:48;100055.75;;;14.68;81.95
75740;BME280;64357;51.344;6.550;2022-12-31T02:42:15;100066.59;;;14.64;81.62
75740;BME280;64357;51.344;6.550;2022-12-31T02:44:41;100067.03;;;14.70;81.48
75740;BME280;64357;51.344;6.550;2022-12-31T02:49:41;100087.56;;;14.82;80.98
75740;BME280;64357;51.344;6.550;2022-12-31T02:52:22;100074.34;;;14.89;80.83
75740;BME280;64357;51.344;6.550;2022-12-31T03:00:05;100088.03;;;14.76;81.53
75740;BME280;64357;51.344;6.550;2022-12-31T03:02:51;100103.44;;;14.76;81.87
75740;BME280;64357;51.344;6.550;2022-12-31T03:05:19;100101.47;;;14.72;82.26
75740;BME280;64357;51.344;6.550;2022-12-31T03:07:45;100102.13;;;14.70;82.15
75740;BME280;64357;51.344;6.550;2022-12-31T03:10:13;100086.00;;;14.84;81.34
75740;BME280;64357;51.344;6.550;2022-12-31T03:12:41;100072.59;;;14.76;81.91
75740;BME280;64357;51.344;6.550;2022-12-31T03:15:17;100095.41;;;14.83;81.35
75740;BME280;64357;51.344;6.550;2022-12-31T03:17:57;100069.09;;;14.87;81.38
75740;BME280;64357;51.344;6.550;2022-12-31T03:20:27;100078.97;;;14.81;82.17
75740;BME280;64357;51.344;6.550;2022-12-31T03:23:35;100063.31;;;14.90;81.11
75740;BME280;64357;51.344;6.550;2022-12-31T03:26:02;100076.03;;;14.88;81.43
75740;BME280;64357;51.344;6.550;2022-12-31T03:28:34;100091.69;;;14.91;81.27
75740;BME280;64357;51.344;6.550;2022-12-31T03:31:00;100067.88;;;14.82;81.38
75740;BME280;64357;51.344;6.550;2022-12-31T03:33:30;100100.63;;;14.97;81.13
75740;BME280;64357;51.344;6.550;2022-12-31T03:35:56;100095.38;;;14.95;81.42
75740;BME280;64357;51.344;6.550;2022-12-31T03:38:21;100105.66;;;14.95;81.36
75740;BME280;64357;51.344;6.550;2022-12-31T03:40:50;100106.75;;;14.99;81.87
75740;BME280;64357;51.344;6.550;2022-12-31T03:43:16;100110.47;;;14.90;81.93
75740;BME280;64357;51.344;6.550;2022-12-31T03:45:43;100101.19;;;14.92;81.81
75740;BME280;64357;51.344;6.550;2022-12-31T03:48:09;100116.06;;;14.97;82.19
75740;BME280;64357;51.344;6.550;2022-12-31T03:50:35;100112.34;;;14.93;82.15
75740;BME280;64357;51.344;6.550;2022-12-31T03:53:00;100110.81;;;14.95;81.63
75740;BME280;64357;51.344;6.550;2022-12-31T03:55:26;100117.16;;;14.88;82.52
75740;BME280;64357;51.344;6.550;2022-12-31T03:57:51;100108.94;;;14.81;82.88
75740;BME280;64357;51.344;6.550;2022-12-31T04:00:18;100102.91;;;14.80;83.17
75740;BME280;64357;51.344;6.550;2022-12-31T04:02:47;100096.19;;;14.71;83.58
75740;BME280;64357;51.344;6.550;2022-12-31T04:05:13;100111.53;;;14.69;83.95
75740;BME280;64357;51.344;6.550;2022-12-31T04:07:39;100117.44;;;14.68;83.63
75740;BME280;64357;51.344;6.550;2022-12-31T04:10:07;100094.31;;;14.68;84.07
75740;BME280;64357;51.344;6.550;2022-12-31T04:12:35;100104.16;;;14.62;84.06
75740;BME280;64357;51.344;6.550;2022-12-31T04:15:01;100105.50;;;14.57;84.39
75740;BME280;64357;51.344;6.550;2022-12-31T04:17:26;100110.88;;;14.60;84.41
75740;BME280;64357;51.344;6.550;2022-12-31T04:19:51;100109.75;;;14.56;84.16
75740;BME280;64357;51.344;6.550;2022-12-31T04:22:17;100101.03;;;14.66;83.97
75740;BME280;64357;51.344;6.550;2022-12-31T04:24:43;100094.06;;;14.65;83.83
75740;BME280;64357;51.344;6.550;2022-12-31T04:27:10;100102.78;;;14.79;83.05
75740;BME280;64357;51.344;6.550;2022-12-31T04:29:36;100093.28;;;14.78;83.09
75740;BME280;64357;51.344;6.550;2022-12-31T04:32:04;100093.28;;;14.78;82.49
75740;BME280;64357;51.344;6.550;2022-12-31T04:34:32;100102.19;;;14.83;82.20
75740;BME280;64357;51.344;6.550;2022-12-31T04:36:58;100099.41;;;14.91;82.02
75740;BME280;64357;51.344;6.550;2022-12-31T04:39:24;100082.50;;;14.95;81.91
75740;BME280;64357;51.344;6.550;2022-12-31T04:41:49;100091.41;;;15.00;80.74
75740;BME280;64357;51.344;6.550;2022-12-31T04:44:15;100075.78;;;14.97;81.26
75740;BME280;64357;51.344;6.550;2022-12-31T04:46:41;100100.94;;;15.01;80.95
75740;BME280;64357;51.344;6.550;2022-12-31T04:49:06;100082.66;;;15.10;80.10
75740;BME280;64357;51.344;6.550;2022-12-31T04:51:32;100083.38;;;15.07;79.98
75740;BME280;64357;51.344;6.550;2022-12-31T04:54:00;100096.41;;;15.10;80.00
75740;BME280;64357;51.344;6.550;2022-12-31T04:56:26;100093.47;;;15.17;79.67
75740;BME280;64357;51.344;6.550;2022-12-31T04:58:51;100106.25;;;15.16;79.63
75740;BME280;64357;51.344;6.550;2022-12-31T05:01:20;100099.75;;;15.21;79.27
75740;BME280;64357;51.344;6.550;2022-12-31T05:03:45;100088.59;;;15.09;79.73
75740;BME280;64357;51.344;6.550;2022-12-31T05:06:16;100092.81;;;15.20;78.95
75740;BME280;64357;51.344;6.550;2022-12-31T05:08:44;100088.66;;;15.22;79.18
75740;BME280;64357;51.344;6.550;2022-12-31T05:11:15;100086.97;;;15.23;79.07
75740;BME280;64357;51.344;6.550;2022-12-31T05:13:43;100079.25;;;15.23;79.38
75740;BME280;64357;51.344;6.550;2022-12-31T05:16:08;100101.94;;;15.28;78.69
75740;BME280;64357;51.344;6.550;2022-12-31T05:18:36;100091.50;;;15.38;78.02
75740;BME280;64357;51.344;6.550;2022-12-31T05:21:02;100110.09;;;15.34;78.14
75740;BME280;64357;51.344;6.550;2022-12-31T05:23:28;100106.84;;;15.37;78.02
75740;BME280;64357;51.344;6.550;2022-12-31T05:25:53;100106.16;;;15.39;77.94
75740;BME280;64357;51.344;6.550;2022-12-31T05:28:18;100108.16;;;15.43;77.81
75740;BME280;64357;51.344;6.550;2022-12-31T05:30:47;100100.94;;;15.51;77.21
75740;BME280;64357;51.344;6.550;2022-12-31T05:33:13;100085.47;;;15.63;76.70
75740;BME280;64357;51.344;6.550;2022-12-31T05:35:38;100116.44;;;15.64;76.96
75740;BME280;64357;51.344;6.550;2022-12-31T05:38:03;100116.13;;;15.60;76.93
75740;BME280;64357;51.344;6.550;2022-12-31T05:40:29;100090.16;;;15.57;76.69
75740;BME280;64357;51.344;6.550;2022-12-31T05:42:54;100108.72;;;15.64;76.68
75740;BME280;64357;51.344;6.550;2022-12-31T05:45:24;100125.28;;;15.68;76.69
75740;BME280;64357;51.344;6.550;2022-12-31T05:47:49;100101.13;;;15.66;76.41
75740;BME280;64357;51.344;6.550;2022-12-31T05:50:15;100133.09;;;15.69;76.55
75740;BME280;64357;51.344;6.550;2022-12-31T05:52:41;100115.56;;;15.64;76.68
75740;BME280;64357;51.344;6.550;2022-12-31T05:55:08;100123.81;;;15.71;76.84
75740;BME280;64357;51.344;6.550;2022-12-31T05:57:33;100147.75;;;15.70;76.91
75740;BME280;64357;51.344;6.550;2022-12-31T05:59:58;100149.44;;;15.70;76.93
75740;BME280;64357;51.344;6.550;2022-12-31T06:02:26;100134.13;;;15.71;76.84
75740;BME280;64357;51.344;6.550;2022-12-31T06:04:52;100148.56;;;15.69;76.58
75740;BME280;64357;51.344;6.550;2022-12-31T06:07:17;100147.88;;;15.72;76.80
75740;BME280;64357;51.344;6.550;2022-12-31T06:09:42;100164.38;;;15.62;77.31
75740;BME280;64357;51.344;6.550;2022-12-31T06:12:08;100143.41;;;15.69;76.70
75740;BME280;64357;51.344;6.550;2022-12-31T06:14:36;100141.84;;;15.71;76.92
75740;BME280;64357;51.344;6.550;2022-12-31T06:17:03;100135.59;;;15.68;76.89
75740;BME280;64357;51.344;6.550;2022-12-31T06:19:29;100154.09;;;15.62;76.89
75740;BME280;64357;51.344;6.550;2022-12-31T06:21:56;100150.38;;;15.59;77.11
75740;BME280;64357;51.344;6.550;2022-12-31T06:24:22;100163.13;;;15.69;76.63
75740;BME280;64357;51.344;6.550;2022-12-31T06:26:47;100164.50;;;15.77;75.84
75740;BME280;64357;51.344;6.550;2022-12-31T06:29:15;100156.28;;;15.69;76.14
75740;BME280;64357;51.344;6.550;2022-12-31T06:31:40;100168.34;;;15.70;76.10
75740;BME280;64357;51.344;6.550;2022-12-31T06:34:05;100172.19;;;15.64;76.24
75740;BME280;64357;51.344;6.550;2022-12-31T06:36:33;100154.34;;;15.79;75.37
75740;BME280;64357;51.344;6.550;2022-12-31T06:39:00;100174.94;;;15.79;75.51
75740;BME280;64357;51.344;6.550;2022-12-31T06:41:25;100178.97;;;15.75;75.45
75740;BME280;64357;51.344;6.550;2022-12-31T06:43:53;100181.56;;;15.75;75.79
75740;BME280;64357;51.344;6.550;2022-12-31T06:46:18;100146.81;;;15.82;75.49
75740;BME280;64357;51.344;6.550;2022-12-31T06:48:46;100187.03;;;15.80;75.67
75740;BME280;64357;51.344;6.550;2022-12-31T06:51:16;100196.28;;;15.89;75.42
75740;BME280;64357;51.344;6.550;2022-12-31T06:53:45;100196.91;;;15.73;76.11
75740;BME280;64357;51.344;6.550;2022-12-31T06:56:19;100196.34;;;15.78;75.92
75740;BME280;64357;51.344;6.550;2022-12-31T06:58:45;100199.00;;;15.79;75.99
75740;BME280;64357;51.344;6.550;2022-12-31T07:03:57;100205.84;;;15.79;76.11
75740;BME280;64357;51.344;6.550;2022-12-31T07:06:35;100203.38;;;15.80;75.92
75740;BME280;64357;51.344;6.550;2022-12-31T07:12:01;100231.78;;;15.82;76.06
75740;BME280;64357;51.344;6.550;2022-12-31T07:14:35;100210.53;;;15.84;75.79
75740;BME280;64357;51.344;6.550;2022-12-31T07:22:34;100248.59;;;15.77;76.40
75740;BME280;64357;51.344;6.550;2022-12-31T07:25:02;100242.00;;;15.80;76.16
75740;BME280;64357;51.344;6.550;2022-12-31T07:30:07;100244.81;;;15.83;75.92
75740;BME280;64357;51.344;6.550;2022-12-31T07:41:22;100244.63;;;15.68;76.51
75740;BME280;64357;51.344;6.550;2022-12-31T07:46:59;100247.91;;;15.66;76.38
75740;BME280;64357;51.344;6.550;2022-12-31T07:49:28;100267.34;;;15.74;75.85
75740;BME280;64357;51.344;6.550;2022-12-31T07:51:59;100268.31;;;15.76;75.92
75740;BME280;64357;51.344;6.550;2022-12-31T07:54:24;100249.88;;;15.70;75.64
75740;BME280;64357;51.344;6.550;2022-12-31T07:56:50;100255.34;;;15.75;75.49
75740;BME280;64357;51.344;6.550;2022-12-31T08:02:29;100252.25;;;15.92;74.49
75740;BME280;64357;51.344;6.550;2022-12-31T08:10:45;100277.16;;;16.05;73.49
75740;BME280;64357;51.344;6.550;2022-12-31T08:13:15;100282.13;;;16.02;73.36
75740;BME280;64357;51.344;6.550;2022-12-31T08:15:40;100278.47;;;16.11;73.41
75740;BME280;64357;51.344;6.550;2022-12-31T08:18:07;100246.19;;;16.16;72.54
75740;BME280;64357;51.344;6.550;2022-12-31T08:20:38;100274.34;;;16.13;72.89
75740;BME280;64357;51.344;6.550;2022-12-31T08:23:40;100289.00;;;16.14;72.95
75740;BME280;64357;51.344;6.550;2022-12-31T08:31:29;100281.59;;;16.19;72.98
75740;BME280;64357;51.344;6.550;2022-12-31T08:34:11;100278.22;;;16.20;73.02
75740;BME280;64357;51.344;6.550;2022-12-31T08:39:39;100297.41;;;16.12;73.39
75740;BME280;64357;51.344;6.550;2022-12-31T08:42:21;100302.47;;;16.10;73.31
75740;BME280;64357;51.344;6.550;2022-12-31T08:44:57;100287.88;;;16.11;73.46
75740;BME280;64357;51.344;6.550;2022-12-31T08:50:32;100304.56;;;16.16;73.01
75740;BME280;64357;51.344;6.550;2022-12-31T08:52:58;100327.16;;;16.07;73.69
75740;BME280;64357;51.344;6.550;2022-12-31T08:55:23;100320.13;;;16.17;73.12
75740;BME280;64357;51.344;6.550;2022-12-31T09:00:54;100316.97;;;16.21;72.42
75740;BME280;64357;51.344;6.550;2022-12-31T09:14:21;100378.81;;;16.46;71.67
75740;BME280;64357;51.344;6.550;2022-12-31T09:19:27;100382.56;;;16.38;72.21
75740;BME280;64357;51.344;6.550;2022-12-31T09:21:52;100387.72;;;16.38;71.97
75740;BME280;64357;51.344;6.550;2022-12-31T09:24:18;100387.78;;;16.51;71.45
75740;BME280;64357;51.344;6.550;2022-12-31T09:26:54;100406.94;;;16.55;71.48
75740;BME280;64357;51.344;6.550;2022-12-31T09:34:40;100432.25;;;16.61;71.35
75740;BME280;64357;51.344;6.550;2022-12-31T09:37:17;100417.56;;;16.60;71.34
75740;BME280;64357;51.344;6.550;2022-12-31T09:39:46;100413.19;;;16.59;71.49
75740;BME280;64357;51.344;6.550;2022-12-31T09:50:53;100429.81;;;16.50;71.95
75740;BME280;64357;51.344;6.550;2022-12-31T09:56:35;100462.19;;;16.59;71.41
75740;BME280;64357;51.344;6.550;2022-12-31T09:59:09;100461.16;;;16.68;71.11
75740;BME280;64357;51.344;6.550;2022-12-31T10:02:07;100460.81;;;16.64;70.90
75740;BME280;64357;51.344;6.550;2022-12-31T10:07:43;100466.66;;;16.73;70.99
75740;BME280;64357;51.344;6.550;2022-12-31T10:18:17;100479.81;;;16.89;69.58
75740;BME280;64357;51.344;6.550;2022-12-31T10:32:16;100487.38;;;16.99;69.26
75740;BME280;64357;51.344;6.550;2022-12-31T10:37:18;100498.66;;;16.88;69.54
75740;BME280;64357;51.344;6.550;2022-12-31T11:23:12;100479.41;;;17.21;68.03
75740;BME280;64357;51.344;6.550;2022-12-31T11:25:52;100471.97;;;17.13;68.56
75740;BME280;64357;51.344;6.550;2022-12-31T11:28:38;100470.25;;;17.13;68.19
75740;BME280;64357;51.344;6.550;2022-12-31T11:45:21;100476.72;;;17.07;68.14
75740;BME280;64357;51.344;6.550;2022-12-31T11:50:28;100483.34;;;17.03;68.42
75740;BME280;64357;51.344;6.550;2022-12-31T11:58:21;100473.91;;;17.03;67.77
75740;BME280;64357;51.344;6.550;2022-12-31T12:01:03;100487.38;;;16.99;68.18
75740;BME280;64357;51.344;6.550;2022-12-31T12:03:32;100477.75;;;16.97;68.26
75740;BME280;64357;51.344;6.550;2022-12-31T12:05:58;100489.59;;;16.82;68.83
75740;BME280;64357;51.344;6.550;2022-12-31T12:08:29;100483.16;;;16.88;68.30
75740;BME280;64357;51.344;6.550;2022-12-31T12:11:05;100496.75;;;16.86;68.46
75740;BME280;64357;51.344;6.550;2022-12-31T12:13:31;100481.75;;;16.80;69.00
75740;BME280;64357;51.344;6.550;2022-12-31T12:15:59;100479.75;;;16.76;69.38
75740;BME280;64357;51.344;6.550;2022-12-31T12:21:07;100498.66;;;16.51;72.11
75740;BME280;64357;51.344;6.550;2022-12-31T12:23:36;100483.31;;;16.41;72.56
75740;BME280;64357;51.344;6.550;2022-12-31T12:26:05;100488.03;;;16.35;72.96
75740;BME280;64357;51.344;6.550;2022-12-31T12:28:44;100482.34;;;16.27;73.66
75740;BME280;64357;51.344;6.550;2022-12-31T12:31:21;100494.28;;;16.14;74.93
75740;BME280;64357;51.344;6.550;2022-12-31T12:33:50;100486.19;;;16.09;75.21
75740;BME280;64357;51.344;6.550;2022-12-31T12:36:20;100491.13;;;16.06;75.34
75740;BME280;64357;51.344;6.550;2022-12-31T12:38:59;100493.84;;;16.08;74.83
75740;BME280;64357;51.344;6.550;2022-12-31T12:41:25;100493.56;;;16.16;74.29
75740;BME280;64357;51.344;6.550;2022-12-31T12:44:12;100478.66;;;16.12;74.24
75740;BME280;64357;51.344;6.550;2022-12-31T12:46:43;100486.97;;;16.20;73.27
75740;BME280;64357;51.344;6.550;2022-12-31T12:49:43;100482.34;;;16.27;72.94
75740;BME280;64357;51.344;6.550;2022-12-31T12:55:24;100478.31;;;16.31;72.72
75740;BME280;64357;51.344;6.550;2022-12-31T12:58:06;100503.03;;;16.41;71.89
75740;BME280;64357;51.344;6.550;2022-12-31T13:01:01;100493.16;;;16.47;71.67
75740;BME280;64357;51.344;6.550;2022-12-31T13:04:00;100495.22;;;16.39;71.56
75740;BME280;64357;51.344;6.550;2022-12-31T13:11:57;100489.81;;;16.48;70.96
75740;BME280;64357;51.344;6.550;2022-12-31T13:20:00;100514.22;;;16.53;71.02
75740;BME280;64357;51.344;6.550;2022-12-31T13:22:37;100495.63;;;16.45;70.99
75740;BME280;64357;51.344;6.550;2022-12-31T13:25:38;100508.41;;;16.56;70.21
75740;BME280;64357;51.344;6.550;2022-12-31T13:28:10;100523.41;;;16.61;70.32
75740;BME280;64357;51.344;6.550;2022-12-31T13:30:52;100498.41;;;16.60;69.58
75740;BME280;64357;51.344;6.550;2022-12-31T13:33:24;100500.75;;;16.57;69.85
75740;BME280;64357;51.344;6.550;2022-12-31T13:36:04;100492.41;;;16.48;70.08
75740;BME280;64357;51.344;6.550;2022-12-31T13:38:38;100523.97;;;16.57;69.44
75740;BME280;64357;51.344;6.550;2022-12-31T13:48:41;100488.75;;;16.58;68.59
75740;BME280;64357;51.344;6.550;2022-12-31T13:56:54;100497.53;;;16.60;66.63
75740;BME280;64357;51.344;6.550;2022-12-31T13:59:31;100499.88;;;16.57;66.37
75740;BME280;64357;51.344;6.550;2022-12-31T14:04:36;100496.16;;;16.53;66.94
75740;BME280;64357;51.344;6.550;2022-12-31T14:08:15;100489.81;;;16.48;67.71
75740;BME280;64357;51.344;6.550;2022-12-31T14:10:19;100485.56;;;16.48;67.52
75740;BME280;64357;51.344;6.550;2022-12-31T14:15:39;100486.06;;;16.31;68.72
75740;BME280;64357;51.344;6.550;2022-12-31T14:20:53;100493.56;;;16.28;67.54
75740;BME280;64357;51.344;6.550;2022-12-31T14:26:07;100500.84;;;16.22;67.45
75740;BME280;64357;51.344;6.550;2022-12-31T14:34:29;100493.94;;;16.09;67.71
75740;BME280;64357;51.344;6.550;2022-12-31T14:47:58;100526.44;;;15.72;70.84
75740;BME280;64357;51.344;6.550;2022-12-31T14:50:30;100529.56;;;15.68;71.01
75740;BME280;64357;51.344;6.550;2022-12-31T14:55:29;100532.19;;;15.58;72.43
75740;BME280;64357;51.344;6.550;2022-12-31T14:57:57;100536.44;;;15.57;72.67
75740;BME280;64357;51.344;6.550;2022-12-31T15:03:19;100542.47;;;15.46;73.13
75740;BME280;64357;51.344;6.550;2022-12-31T15:05:55;100552.53;;;15.31;73.94
75740;BME280;64357;51.344;6.550;2022-12-31T15:22:15;100574.50;;;15.16;74.91
75740;BME280;64357;51.344;6.550;2022-12-31T15:24:47;100567.75;;;15.06;75.22
75740;BME280;64357;51.344;6.550;2022-12-31T15:27:38;100562.53;;;15.16;74.86
75740;BME280;64357;51.344;6.550;2022-12-31T15:30:25;100573.97;;;15.20;74.89
75740;BME280;64357;51.344;6.550;2022-12-31T15:32:53;100564.69;;;15.00;74.95
75740;BME280;64357;51.344;6.550;2022-12-31T15:40:21;100569.16;;;14.91;75.86
75740;BME280;64357;51.344;6.550;2022-12-31T15:42:51;100565.13;;;14.94;76.36
75740;BME280;64357;51.344;6.550;2022-12-31T15:45:38;100569.25;;;14.92;76.02
75740;BME280;64357;51.344;6.550;2022-12-31T15:48:17;100562.88;;;14.87;76.21
75740;BME280;64357;51.344;6.550;2022-12-31T15:50:45;100571.63;;;14.89;76.18
75740;BME280;64357;51.344;6.550;2022-12-31T15:53:37;100551.78;;;14.88;76.20
75740;BME280;64357;51.344;6.550;2022-12-31T15:56:04;100554.72;;;14.93;75.73
75740;BME280;64357;51.344;6.550;2022-12-31T15:58:34;100556.41;;;14.92;75.79
75740;BME280;64357;51.344;6.550;2022-12-31T16:01:19;100548.16;;;14.97;75.43
75740;BME280;64357;51.344;6.550;2022-12-31T16:04:02;100551.19;;;15.03;74.93
75740;BME280;64357;51.344;6.550;2022-12-31T16:06:40;100551.09;;;15.01;75.19
75740;BME280;64357;51.344;6.550;2022-12-31T16:09:07;100551.13;;;15.13;74.09
75740;BME280;64357;51.344;6.550;2022-12-31T16:11:39;100552.66;;;15.11;73.60
75740;BME280;64357;51.344;6.550;2022-12-31T16:14:24;100547.78;;;15.14;73.14
75740;BME280;64357;51.344;6.550;2022-12-31T16:16:58;100540.22;;;15.05;73.61
75740;BME280;64357;51.344;6.550;2022-12-31T16:19:44;100541.31;;;15.19;72.30
75740;BME280;64357;51.344;6.550;2022-12-31T16:22:16;100538.59;;;15.17;72.28
75740;BME280;64357;51.344;6.550;2022-12-31T16:24:44;100542.75;;;15.15;72.09
75740;BME280;64357;51.344;6.550;2022-12-31T16:27:16;100535.31;;;15.30;71.16
75740;BME280;64357;51.344;6.550;2022-12-31T16:29:44;100542.19;;;15.19;71.64
75740;BME280;64357;51.344;6.550;2022-12-31T16:32:16;100545.78;;;15.22;71.17
75740;BME280;64357;51.344;6.550;2022-12-31T16:34:45;100538.94;;;15.22;71.05
75740;BME280;64357;51.344;6.550;2022-12-31T16:37:18;100542.78;;;15.27;70.88
75740;BME280;64357;51.344;6.550;2022-12-31T16:42:25;100532.47;;;15.27;70.38
75740;BME280;64357;51.344;6.550;2022-12-31T16:44:52;100526.09;;;15.22;70.94
75740;BME280;64357;51.344;6.550;2022-12-31T16:47:36;100522.28;;;15.29;69.87
75740;BME280;64357;51.344;6.550;2022-12-31T16:50:19;100529.56;;;15.23;70.17
75740;BME280;64357;51.344;6.550;2022-12-31T16:52:50;100544.41;;;15.15;70.62
75740;BME280;64357;51.344;6.550;2022-12-31T16:55:24;100524.78;;;15.05;70.53
75740;BME280;64357;51.344;6.550;2022-12-31T16:57:55;100542.28;;;15.09;70.63
75740;BME280;64357;51.344;6.550;2022-12-31T17:00:23;100546.53;;;15.09;69.65
75740;BME280;64357;51.344;6.550;2022-12-31T17:03:01;100532.34;;;15.14;69.82
75740;BME280;64357;51.344;6.550;2022-12-31T17:05:31;100539.28;;;15.15;69.51
75740;BME280;64357;51.344;6.550;2022-12-31T17:08:18;100544.38;;;15.03;69.97
75740;BME280;64357;51.344;6.550;2022-12-31T17:10:48;100525.59;;;15.04;70.04
75740;BME280;64357;51.344;6.550;2022-12-31T17:13:24;100525.47;;;15.03;69.44
75740;BME280;64357;51.344;6.550;2022-12-31T17:15:53;100528.94;;;15.03;69.45
75740;BME280;64357;51.344;6.550;2022-12-31T17:18:21;100515.72;;;14.99;69.20
75740;BME280;64357;51.344;6.550;2022-12-31T17:20:55;100525.16;;;15.10;68.71
75740;BME280;64357;51.344;6.550;2022-12-31T17:23:36;100505.09;;;15.06;68.92
75740;BME280;64357;51.344;6.550;2022-12-31T17:26:21;100507.69;;;15.06;68.59
75740;BME280;64357;51.344;6.550;2022-12-31T17:28:49;100506.22;;;14.98;68.74
75740;BME280;64357;51.344;6.550;2022-12-31T17:31:26;100502.69;;;15.07;68.15
75740;BME280;64357;51.344;6.550;2022-12-31T17:33:53;100500.84;;;15.06;68.08
75740;BME280;64357;51.344;6.550;2022-12-31T17:36:21;100513.16;;;14.99;68.41
75740;BME280;64357;51.344;6.550;2022-12-31T17:38:47;100508.00;;;14.99;67.90
75740;BME280;64357;51.344;6.550;2022-12-31T17:41:14;100521.53;;;14.96;67.70
75740;BME280;64357;51.344;6.550;2022-12-31T17:43:41;100506.38;;;14.89;68.17
75740;BME280;64357;51.344;6.550;2022-12-31T17:46:14;100515.25;;;14.92;67.40
75740;BME280;64357;51.344;6.550;2022-12-31T17:48:41;100512.69;;;14.92;66.79
75740;BME280;64357;51.344;6.550;2022-12-31T17:51:10;100508.69;;;14.96;66.68
75740;BME280;64357;51.344;6.550;2022-12-31T17:53:41;100498.81;;;14.90;66.38
75740;BME280;64357;51.344;6.550;2022-12-31T17:56:13;100508.44;;;14.93;66.57